sensor_id;sensor_type;location;lat;lon;timestamp;temperature;humidity
2571;DHT22;1295;51.130;6.732;2023-04-29T00:01:32;14.70;99.90
2571;DHT22;1295;51.130;6.732;2023-04-29T00:03:57;14.70;99.90
2571;DHT22;1295;51.130;6.732;2023-04-29T00:06:23;14.60;99.90
2571;DHT22;1295;51.130;6.732;2023-04-29T00:08:49;15.00;99.90
2571;DHT22;1295;51.130;6.732;2023-04-29T00:11:14;15.00;99.90
2571;DHT22;1295;51.130;6.732;2023-04-29T00:13:41;14.40;99.90
2571;DHT22;1295;51.130;6.732;2023-04-29T00:16:07;14.40;99.90
2571;DHT22;1295;51.130;6.732;2023-04-29T00:18:33;14.60;99.90
2571;DHT22;1295;51.130;6.732;2023-04-29T00:20:58;14.60;99.90
2571;DHT22;1295;51.130;6.732;2023-04-29T00:23:24;15.00;99.90
2571;DHT22;1295;51.130;6.732;2023-04-29T00:25:50;14.60;99.90
2571;DHT22;1295;51.130;6.732;2023-04-29T00:28:15;14.60;99.90
2571;DHT22;1295;51.130;6.732;2023-04-29T00:30:41;14.60;99.90
2571;DHT22;1295;51.130;6.732;2023-04-29T00:33:07;14.20;99.90
2571;DHT22;1295;51.130;6.732;2023-04-29T00:35:32;14.70;99.90
2571;DHT22;1295;51.130;6.732;2023-04-29T00:37:58;15.00;99.90
2571;DHT22;1295;51.130;6.732;2023-04-29T00:40:24;14.80;99.90
2571;DHT22;1295;51.130;6.732;2023-04-29T00:42:49;14.70;99.90
2571;DHT22;1295;51.130;6.732;2023-04-29T00:45:15;14.50;99.90
2571;DHT22;1295;51.130;6.732;2023-04-29T00:47:40;14.60;99.90
2571;DHT22;1295;51.130;6.732;2023-04-29T00:50:07;14.70;99.90
2571;DHT22;1295;51.130;6.732;2023-04-29T00:52:33;14.50;99.90
2571;DHT22;1295;51.130;6.732;2023-04-29T00:54:58;14.90;99.90
2571;DHT22;1295;51.130;6.732;2023-04-29T00:57:25;14.70;99.90
2571;DHT22;1295;51.130;6.732;2023-04-29T00:59:50;14.40;99.90
2571;DHT22;1295;51.130;6.732;2023-04-29T01:02:15;14.80;99.90
2571;DHT22;1295;51.130;6.732;2023-04-29T01:04:41;14.30;99.90
2571;DHT22;1295;51.130;6.732;2023-04-29T01:07:23;14.30;99.90
2571;DHT22;1295;51.130;6.732;2023-04-29T01:12:25;13.90;99.90
2571;DHT22;1295;51.130;6.732;2023-04-29T01:14:52;14.60;99.90
2571;DHT22;1295;51.130;6.732;2023-04-29T01:17:14;14.80;99.90
2571;DHT22;1295;51.130;6.732;2023-04-29T01:19:47;14.50;99.90
2571;DHT22;1295;51.130;6.732;2023-04-29T01:22:12;14.60;99.90
2571;DHT22;1295;51.130;6.732;2023-04-29T01:24:39;14.30;99.90
2571;DHT22;1295;51.130;6.732;2023-04-29T01:27:16;14.30;99.90
2571;DHT22;1295;51.130;6.732;2023-04-29T01:29:50;14.30;99.90
2571;DHT22;1295;51.130;6.732;2023-04-29T01:32:12;14.80;99.90
2571;DHT22;1295;51.130;6.732;2023-04-29T01:34:41;14.90;99.90
2571;DHT22;1295;51.130;6.732;2023-04-29T01:37:13;14.80;99.90
2571;DHT22;1295;51.130;6.732;2023-04-29T01:39:40;14.80;99.90
2571;DHT22;1295;51.130;6.732;2023-04-29T01:42:09;14.60;99.90
2571;DHT22;1295;51.130;6.732;2023-04-29T01:44:31;14.30;99.90
2571;DHT22;1295;51.130;6.732;2023-04-29T01:46:56;14.70;99.90
2571;DHT22;1295;51.130;6.732;2023-04-29T01:49:23;14.80;99.90
2571;DHT22;1295;51.130;6.732;2023-04-29T01:51:48;14.40;99.90
2571;DHT22;1295;51.130;6.732;2023-04-29T01:54:14;14.40;99.90
2571;DHT22;1295;51.130;6.732;2023-04-29T01:56:40;14.60;99.90
2571;DHT22;1295;51.130;6.732;2023-04-29T01:59:05;14.50;99.90
2571;DHT22;1295;51.130;6.732;2023-04-29T02:01:31;14.70;99.90
2571;DHT22;1295;51.130;6.732;2023-04-29T02:03:57;14.00;99.90
2571;DHT22;1295;51.130;6.732;2023-04-29T02:06:23;14.00;99.90
2571;DHT22;1295;51.130;6.732;2023-04-29T02:08:49;14.20;99.90
2571;DHT22;1295;51.130;6.732;2023-04-29T02:11:14;14.60;99.90
2571;DHT22;1295;51.130;6.732;2023-04-29T02:13:40;14.60;99.90
2571;DHT22;1295;51.130;6.732;2023-04-29T02:16:07;14.70;99.90
2571;DHT22;1295;51.130;6.732;2023-04-29T02:18:32;14.80;99.90
2571;DHT22;1295;51.130;6.732;2023-04-29T02:20:59;14.80;99.90
2571;DHT22;1295;51.130;6.732;2023-04-29T02:23:24;14.90;99.90
2571;DHT22;1295;51.130;6.732;2023-04-29T02:25:50;14.70;99.90
2571;DHT22;1295;51.130;6.732;2023-04-29T02:28:15;14.90;99.90
2571;DHT22;1295;51.130;6.732;2023-04-29T02:30:41;14.70;99.90
2571;DHT22;1295;51.130;6.732;2023-04-29T02:33:07;14.60;99.90
2571;DHT22;1295;51.130;6.732;2023-04-29T02:35:32;14.70;99.90
2571;DHT22;1295;51.130;6.732;2023-04-29T02:37:58;14.70;99.90
2571;DHT22;1295;51.130;6.732;2023-04-29T02:40:24;14.70;99.90
2571;DHT22;1295;51.130;6.732;2023-04-29T02:42:50;14.70;99.90
2571;DHT22;1295;51.130;6.732;2023-04-29T02:45:16;14.70;99.90
2571;DHT22;1295;51.130;6.732;2023-04-29T02:47:41;14.50;99.90
2571;DHT22;1295;51.130;6.732;2023-04-29T02:50:07;14.60;99.90
2571;DHT22;1295;51.130;6.732;2023-04-29T02:52:33;14.50;99.90
2571;DHT22;1295;51.130;6.732;2023-04-29T02:54:58;14.60;99.90
2571;DHT22;1295;51.130;6.732;2023-04-29T02:57:24;14.60;99.90
2571;DHT22;1295;51.130;6.732;2023-04-29T02:59:50;14.60;99.90
2571;DHT22;1295;51.130;6.732;2023-04-29T03:02:15;14.50;99.90
2571;DHT22;1295;51.130;6.732;2023-04-29T03:04:41;14.40;99.90
2571;DHT22;1295;51.130;6.732;2023-04-29T03:07:07;14.40;99.90
2571;DHT22;1295;51.130;6.732;2023-04-29T03:09:33;14.40;99.90
2571;DHT22;1295;51.130;6.732;2023-04-29T03:11:59;14.30;99.90
2571;DHT22;1295;51.130;6.732;2023-04-29T03:14:24;14.40;99.90
2571;DHT22;1295;51.130;6.732;2023-04-29T03:16:50;14.50;99.90
2571;DHT22;1295;51.130;6.732;2023-04-29T03:19:15;14.50;99.90
2571;DHT22;1295;51.130;6.732;2023-04-29T03:21:47;14.30;99.90
2571;DHT22;1295;51.130;6.732;2023-04-29T03:24:23;14.30;99.90
2571;DHT22;1295;51.130;6.732;2023-04-29T03:26:49;14.20;99.90
2571;DHT22;1295;51.130;6.732;2023-04-29T03:29:15;14.40;99.90
2571;DHT22;1295;51.130;6.732;2023-04-29T03:31:40;14.40;99.90
2571;DHT22;1295;51.130;6.732;2023-04-29T03:34:07;14.40;99.90
2571;DHT22;1295;51.130;6.732;2023-04-29T03:36:32;14.40;99.90
2571;DHT22;1295;51.130;6.732;2023-04-29T03:38:58;14.30;99.90
2571;DHT22;1295;51.130;6.732;2023-04-29T03:41:24;14.30;99.90
2571;DHT22;1295;51.130;6.732;2023-04-29T03:43:50;14.30;99.90
2571;DHT22;1295;51.130;6.732;2023-04-29T03:46:16;14.20;99.90
2571;DHT22;1295;51.130;6.732;2023-04-29T03:48:41;14.30;99.90
2571;DHT22;1295;51.130;6.732;2023-04-29T03:51:07;14.00;99.90
2571;DHT22;1295;51.130;6.732;2023-04-29T03:53:33;14.30;99.90
2571;DHT22;1295;51.130;6.732;2023-04-29T03:55:58;14.40;99.90
2571;DHT22;1295;51.130;6.732;2023-04-29T03:58:24;14.40;99.90
2571;DHT22;1295;51.130;6.732;2023-04-29T04:00:50;14.30;99.90
2571;DHT22;1295;51.130;6.732;2023-04-29T04:03:15;14.10;99.90
2571;DHT22;1295;51.130;6.732;2023-04-29T04:05:41;14.30;99.90
2571;DHT22;1295;51.130;6.732;2023-04-29T04:08:06;14.20;99.90
2571;DHT22;1295;51.130;6.732;2023-04-29T04:10:32;14.20;99.90
2571;DHT22;1295;51.130;6.732;2023-04-29T04:12:58;14.30;99.90
2571;DHT22;1295;51.130;6.732;2023-04-29T04:15:24;14.30;99.90
2571;DHT22;1295;51.130;6.732;2023-04-29T04:17:50;14.20;99.90
2571;DHT22;1295;51.130;6.732;2023-04-29T04:20:15;14.30;99.90
2571;DHT22;1295;51.130;6.732;2023-04-29T04:22:42;14.10;99.90
2571;DHT22;1295;51.130;6.732;2023-04-29T04:25:09;14.30;99.90
2571;DHT22;1295;51.130;6.732;2023-04-29T04:27:35;14.20;99.90
2571;DHT22;1295;51.130;6.732;2023-04-29T04:30:00;14.30;99.90
2571;DHT22;1295;51.130;6.732;2023-04-29T04:32:26;14.30;99.90
2571;DHT22;1295;51.130;6.732;2023-04-29T04:34:52;14.30;99.90
2571;DHT22;1295;51.130;6.732;2023-04-29T04:37:17;14.20;99.90
2571;DHT22;1295;51.130;6.732;2023-04-29T04:39:43;14.30;99.90
2571;DHT22;1295;51.130;6.732;2023-04-29T04:42:09;14.20;99.90
2571;DHT22;1295;51.130;6.732;2023-04-29T04:44:34;14.20;99.90
2571;DHT22;1295;51.130;6.732;2023-04-29T04:47:00;14.20;99.90
2571;DHT22;1295;51.130;6.732;2023-04-29T04:49:26;14.20;99.90
2571;DHT22;1295;51.130;6.732;2023-04-29T04:51:52;14.00;99.90
2571;DHT22;1295;51.130;6.732;2023-04-29T04:54:18;14.20;99.90
2571;DHT22;1295;51.130;6.732;2023-04-29T04:56:43;14.10;99.90
2571;DHT22;1295;51.130;6.732;2023-04-29T04:59:09;14.10;99.90
2571;DHT22;1295;51.130;6.732;2023-04-29T05:01:35;14.10;99.90
2571;DHT22;1295;51.130;6.732;2023-04-29T05:04:00;14.10;99.90
2571;DHT22;1295;51.130;6.732;2023-04-29T05:06:26;14.10;99.90
2571;DHT22;1295;51.130;6.732;2023-04-29T05:08:51;14.10;99.90
2571;DHT22;1295;51.130;6.732;2023-04-29T05:11:17;14.20;99.90
2571;DHT22;1295;51.130;6.732;2023-04-29T05:13:43;14.10;99.90
2571;DHT22;1295;51.130;6.732;2023-04-29T05:16:08;14.10;99.90
2571;DHT22;1295;51.130;6.732;2023-04-29T05:18:34;14.10;99.90
2571;DHT22;1295;51.130;6.732;2023-04-29T05:20:59;14.00;99.90
2571;DHT22;1295;51.130;6.732;2023-04-29T05:23:25;14.10;99.90
2571;DHT22;1295;51.130;6.732;2023-04-29T05:25:51;14.10;99.90
2571;DHT22;1295;51.130;6.732;2023-04-29T05:28:17;14.00;99.90
2571;DHT22;1295;51.130;6.732;2023-04-29T05:30:43;14.00;99.90
2571;DHT22;1295;51.130;6.732;2023-04-29T05:33:09;14.10;99.90
2571;DHT22;1295;51.130;6.732;2023-04-29T05:35:35;14.10;99.90
2571;DHT22;1295;51.130;6.732;2023-04-29T05:38:00;14.00;99.90
2571;DHT22;1295;51.130;6.732;2023-04-29T05:40:26;14.00;99.90
2571;DHT22;1295;51.130;6.732;2023-04-29T05:42:53;14.00;99.90
2571;DHT22;1295;51.130;6.732;2023-04-29T05:45:18;14.00;99.90
2571;DHT22;1295;51.130;6.732;2023-04-29T05:47:44;14.00;99.90
2571;DHT22;1295;51.130;6.732;2023-04-29T05:50:10;14.00;99.90
2571;DHT22;1295;51.130;6.732;2023-04-29T05:52:36;14.00;99.90
2571;DHT22;1295;51.130;6.732;2023-04-29T05:55:01;14.00;99.90
2571;DHT22;1295;51.130;6.732;2023-04-29T05:57:27;14.00;99.90
2571;DHT22;1295;51.130;6.732;2023-04-29T05:59:53;14.00;99.90
2571;DHT22;1295;51.130;6.732;2023-04-29T06:02:18;14.00;99.90
2571;DHT22;1295;51.130;6.732;2023-04-29T06:04:44;14.00;99.90
2571;DHT22;1295;51.130;6.732;2023-04-29T06:07:09;14.00;99.90
2571;DHT22;1295;51.130;6.732;2023-04-29T06:09:35;14.00;99.90
2571;DHT22;1295;51.130;6.732;2023-04-29T06:12:01;14.00;99.90
2571;DHT22;1295;51.130;6.732;2023-04-29T06:14:27;14.00;99.90
2571;DHT22;1295;51.130;6.732;2023-04-29T06:16:53;14.00;99.90
2571;DHT22;1295;51.130;6.732;2023-04-29T06:19:18;13.80;99.90
2571;DHT22;1295;51.130;6.732;2023-04-29T06:21:45;13.90;99.90
2571;DHT22;1295;51.130;6.732;2023-04-29T06:24:10;13.90;99.90
2571;DHT22;1295;51.130;6.732;2023-04-29T06:26:36;13.80;99.90
2571;DHT22;1295;51.130;6.732;2023-04-29T06:29:02;13.80;99.90
2571;DHT22;1295;51.130;6.732;2023-04-29T06:31:28;13.70;99.90
2571;DHT22;1295;51.130;6.732;2023-04-29T06:33:54;13.70;99.90
2571;DHT22;1295;51.130;6.732;2023-04-29T06:36:19;13.90;99.90
2571;DHT22;1295;51.130;6.732;2023-04-29T06:38:45;13.90;99.90
2571;DHT22;1295;51.130;6.732;2023-04-29T06:41:11;13.90;99.90
2571;DHT22;1295;51.130;6.732;2023-04-29T06:43:37;13.90;99.90
2571;DHT22;1295;51.130;6.732;2023-04-29T06:46:03;13.90;99.90
2571;DHT22;1295;51.130;6.732;2023-04-29T06:48:29;13.90;99.90
2571;DHT22;1295;51.130;6.732;2023-04-29T06:50:55;13.90;99.90
2571;DHT22;1295;51.130;6.732;2023-04-29T06:53:20;13.80;99.90
2571;DHT22;1295;51.130;6.732;2023-04-29T06:55:46;13.90;99.90
2571;DHT22;1295;51.130;6.732;2023-04-29T06:58:12;13.80;99.90
2571;DHT22;1295;51.130;6.732;2023-04-29T07:00:37;13.80;99.90
2571;DHT22;1295;51.130;6.732;2023-04-29T07:03:03;13.80;99.90
2571;DHT22;1295;51.130;6.732;2023-04-29T07:05:29;13.90;99.90
2571;DHT22;1295;51.130;6.732;2023-04-29T07:07:54;13.80;99.90
2571;DHT22;1295;51.130;6.732;2023-04-29T07:10:20;13.80;99.90
2571;DHT22;1295;51.130;6.732;2023-04-29T07:12:46;13.80;99.90
2571;DHT22;1295;51.130;6.732;2023-04-29T07:15:11;13.80;99.90
2571;DHT22;1295;51.130;6.732;2023-04-29T07:17:37;13.80;99.90
2571;DHT22;1295;51.130;6.732;2023-04-29T07:20:03;13.80;99.90
2571;DHT22;1295;51.130;6.732;2023-04-29T07:22:29;13.70;99.90
2571;DHT22;1295;51.130;6.732;2023-04-29T07:24:54;13.80;99.90
2571;DHT22;1295;51.130;6.732;2023-04-29T07:27:20;13.80;99.90
2571;DHT22;1295;51.130;6.732;2023-04-29T07:29:46;13.80;99.90
2571;DHT22;1295;51.130;6.732;2023-04-29T07:32:11;13.60;99.90
2571;DHT22;1295;51.130;6.732;2023-04-29T07:34:37;13.70;99.90
2571;DHT22;1295;51.130;6.732;2023-04-29T07:37:03;13.60;99.90
2571;DHT22;1295;51.130;6.732;2023-04-29T07:39:29;13.60;99.90
2571;DHT22;1295;51.130;6.732;2023-04-29T07:41:55;13.60;99.90
2571;DHT22;1295;51.130;6.732;2023-04-29T07:44:20;13.50;99.90
2571;DHT22;1295;51.130;6.732;2023-04-29T07:46:46;13.60;99.90
2571;DHT22;1295;51.130;6.732;2023-04-29T07:49:12;13.40;99.90
2571;DHT22;1295;51.130;6.732;2023-04-29T07:51:40;13.60;99.90
2571;DHT22;1295;51.130;6.732;2023-04-29T07:54:03;13.60;99.90
2571;DHT22;1295;51.130;6.732;2023-04-29T07:56:28;13.60;99.90
2571;DHT22;1295;51.130;6.732;2023-04-29T07:58:55;13.70;99.90
2571;DHT22;1295;51.130;6.732;2023-04-29T08:01:20;13.70;99.90
2571;DHT22;1295;51.130;6.732;2023-04-29T08:03:46;13.70;99.90
2571;DHT22;1295;51.130;6.732;2023-04-29T08:06:12;13.60;99.90
2571;DHT22;1295;51.130;6.732;2023-04-29T08:08:37;13.70;99.90
2571;DHT22;1295;51.130;6.732;2023-04-29T08:11:03;13.50;99.90
2571;DHT22;1295;51.130;6.732;2023-04-29T08:13:29;13.60;99.90
2571;DHT22;1295;51.130;6.732;2023-04-29T08:15:54;13.60;99.90
2571;DHT22;1295;51.130;6.732;2023-04-29T08:18:21;13.80;99.90
2571;DHT22;1295;51.130;6.732;2023-04-29T08:20:47;13.70;99.90
2571;DHT22;1295;51.130;6.732;2023-04-29T08:23:12;13.70;99.90
2571;DHT22;1295;51.130;6.732;2023-04-29T08:25:40;13.70;99.90
2571;DHT22;1295;51.130;6.732;2023-04-29T08:28:04;13.60;99.90
2571;DHT22;1295;51.130;6.732;2023-04-29T08:30:29;13.60;99.90
2571;DHT22;1295;51.130;6.732;2023-04-29T08:32:55;13.60;99.90
2571;DHT22;1295;51.130;6.732;2023-04-29T08:35:21;13.50;99.90
2571;DHT22;1295;51.130;6.732;2023-04-29T08:37:46;13.60;99.90
2571;DHT22;1295;51.130;6.732;2023-04-29T08:40:12;13.60;99.90
2571;DHT22;1295;51.130;6.732;2023-04-29T08:42:38;13.60;99.90
2571;DHT22;1295;51.130;6.732;2023-04-29T08:45:04;13.60;99.90
2571;DHT22;1295;51.130;6.732;2023-04-29T08:47:37;13.70;99.90
2571;DHT22;1295;51.130;6.732;2023-04-29T08:50:03;13.60;99.90
2571;DHT22;1295;51.130;6.732;2023-04-29T08:52:31;13.60;99.90
2571;DHT22;1295;51.130;6.732;2023-04-29T08:54:57;13.60;99.90
2571;DHT22;1295;51.130;6.732;2023-04-29T08:57:24;13.60;99.90
2571;DHT22;1295;51.130;6.732;2023-04-29T08:59:48;13.60;99.90
2571;DHT22;1295;51.130;6.732;2023-04-29T09:02:15;13.60;99.90
2571;DHT22;1295;51.130;6.732;2023-04-29T09:04:41;13.60;99.90
2571;DHT22;1295;51.130;6.732;2023-04-29T09:07:05;13.60;99.90
2571;DHT22;1295;51.130;6.732;2023-04-29T09:09:30;13.70;99.90
2571;DHT22;1295;51.130;6.732;2023-04-29T09:11:56;13.60;99.90
2571;DHT22;1295;51.130;6.732;2023-04-29T09:14:22;13.60;99.90
2571;DHT22;1295;51.130;6.732;2023-04-29T09:16:48;13.60;99.90
2571;DHT22;1295;51.130;6.732;2023-04-29T09:19:27;13.60;99.90
2571;DHT22;1295;51.130;6.732;2023-04-29T09:21:53;13.60;99.90
2571;DHT22;1295;51.130;6.732;2023-04-29T09:24:19;13.50;99.90
2571;DHT22;1295;51.130;6.732;2023-04-29T09:26:43;13.60;99.90
2571;DHT22;1295;51.130;6.732;2023-04-29T09:29:10;13.50;99.90
2571;DHT22;1295;51.130;6.732;2023-04-29T09:31:36;13.50;99.90
2571;DHT22;1295;51.130;6.732;2023-04-29T09:34:00;13.60;99.90
2571;DHT22;1295;51.130;6.732;2023-04-29T09:39:04;13.10;99.90
2571;DHT22;1295;51.130;6.732;2023-04-29T09:41:30;12.80;99.90
2571;DHT22;1295;51.130;6.732;2023-04-29T09:44:02;12.90;99.90
2571;DHT22;1295;51.130;6.732;2023-04-29T09:46:27;13.00;99.90
2571;DHT22;1295;51.130;6.732;2023-04-29T09:48:54;13.10;99.90
2571;DHT22;1295;51.130;6.732;2023-04-29T09:51:19;13.00;99.90
2571;DHT22;1295;51.130;6.732;2023-04-29T09:53:45;13.10;99.90
2571;DHT22;1295;51.130;6.732;2023-04-29T09:56:11;13.00;99.90
2571;DHT22;1295;51.130;6.732;2023-04-29T09:58:36;12.80;99.90
2571;DHT22;1295;51.130;6.732;2023-04-29T10:01:03;12.60;99.90
2571;DHT22;1295;51.130;6.732;2023-04-29T10:03:31;12.80;99.90
2571;DHT22;1295;51.130;6.732;2023-04-29T10:05:56;12.90;99.90
2571;DHT22;1295;51.130;6.732;2023-04-29T10:08:22;13.00;99.90
2571;DHT22;1295;51.130;6.732;2023-04-29T10:10:47;13.10;99.90
2571;DHT22;1295;51.130;6.732;2023-04-29T10:13:18;13.20;99.90
2571;DHT22;1295;51.130;6.732;2023-04-29T10:15:51;13.20;99.90
2571;DHT22;1295;51.130;6.732;2023-04-29T10:18:19;13.30;99.90
2571;DHT22;1295;51.130;6.732;2023-04-29T10:20:45;13.30;99.90
2571;DHT22;1295;51.130;6.732;2023-04-29T10:23:11;13.30;99.90
2571;DHT22;1295;51.130;6.732;2023-04-29T10:25:36;13.30;99.90
2571;DHT22;1295;51.130;6.732;2023-04-29T10:28:02;13.30;99.90
2571;DHT22;1295;51.130;6.732;2023-04-29T10:30:28;13.30;99.90
2571;DHT22;1295;51.130;6.732;2023-04-29T10:32:54;13.30;99.90
2571;DHT22;1295;51.130;6.732;2023-04-29T10:35:20;13.40;99.90
2571;DHT22;1295;51.130;6.732;2023-04-29T10:37:45;13.40;99.90
2571;DHT22;1295;51.130;6.732;2023-04-29T10:40:14;13.30;99.90
2571;DHT22;1295;51.130;6.732;2023-04-29T10:42:44;13.30;99.90
2571;DHT22;1295;51.130;6.732;2023-04-29T10:45:16;13.30;99.90
2571;DHT22;1295;51.130;6.732;2023-04-29T10:47:41;13.40;99.90
2571;DHT22;1295;51.130;6.732;2023-04-29T10:50:07;13.40;99.90
2571;DHT22;1295;51.130;6.732;2023-04-29T10:52:50;13.30;99.90
2571;DHT22;1295;51.130;6.732;2023-04-29T10:55:02;13.30;99.90
2571;DHT22;1295;51.130;6.732;2023-04-29T10:57:27;13.30;99.90
2571;DHT22;1295;51.130;6.732;2023-04-29T10:59:52;13.30;99.90
2571;DHT22;1295;51.130;6.732;2023-04-29T11:02:18;13.40;99.90
2571;DHT22;1295;51.130;6.732;2023-04-29T11:07:25;13.30;99.90
2571;DHT22;1295;51.130;6.732;2023-04-29T11:09:50;13.30;99.90
2571;DHT22;1295;51.130;6.732;2023-04-29T11:12:17;13.30;99.90
2571;DHT22;1295;51.130;6.732;2023-04-29T11:14:42;13.40;99.90
2571;DHT22;1295;51.130;6.732;2023-04-29T11:17:09;13.30;99.90
2571;DHT22;1295;51.130;6.732;2023-04-29T11:19:35;13.40;99.90
2571;DHT22;1295;51.130;6.732;2023-04-29T11:22:03;13.40;99.90
2571;DHT22;1295;51.130;6.732;2023-04-29T11:24:28;13.40;99.90
2571;DHT22;1295;51.130;6.732;2023-04-29T11:26:53;13.40;99.90
2571;DHT22;1295;51.130;6.732;2023-04-29T11:29:19;13.30;99.90
2571;DHT22;1295;51.130;6.732;2023-04-29T11:31:44;13.30;99.90
2571;DHT22;1295;51.130;6.732;2023-04-29T11:34:10;13.40;99.90
2571;DHT22;1295;51.130;6.732;2023-04-29T11:36:36;13.30;99.90
2571;DHT22;1295;51.130;6.732;2023-04-29T11:39:02;13.40;99.90
2571;DHT22;1295;51.130;6.732;2023-04-29T11:41:27;13.30;99.90
2571;DHT22;1295;51.130;6.732;2023-04-29T11:43:55;13.40;99.90
2571;DHT22;1295;51.130;6.732;2023-04-29T11:46:20;13.40;99.90
2571;DHT22;1295;51.130;6.732;2023-04-29T11:48:46;13.40;99.90
2571;DHT22;1295;51.130;6.732;2023-04-29T11:51:12;13.40;99.90
2571;DHT22;1295;51.130;6.732;2023-04-29T11:53:38;13.40;99.90
2571;DHT22;1295;51.130;6.732;2023-04-29T11:56:04;13.40;99.90
2571;DHT22;1295;51.130;6.732;2023-04-29T11:58:30;13.40;99.90
2571;DHT22;1295;51.130;6.732;2023-04-29T12:00:57;13.40;99.90
2571;DHT22;1295;51.130;6.732;2023-04-29T12:03:23;13.40;99.90
2571;DHT22;1295;51.130;6.732;2023-04-29T12:05:51;13.40;99.90
2571;DHT22;1295;51.130;6.732;2023-04-29T12:08:21;13.50;99.90
2571;DHT22;1295;51.130;6.732;2023-04-29T12:10:46;13.50;99.90
2571;DHT22;1295;51.130;6.732;2023-04-29T12:13:12;13.50;99.90
2571;DHT22;1295;51.130;6.732;2023-04-29T12:15:38;13.60;99.90
2571;DHT22;1295;51.130;6.732;2023-04-29T12:18:04;13.60;99.90
2571;DHT22;1295;51.130;6.732;2023-04-29T12:20:29;13.60;99.90
2571;DHT22;1295;51.130;6.732;2023-04-29T12:22:55;13.70;99.90
2571;DHT22;1295;51.130;6.732;2023-04-29T12:25:24;13.70;99.90
2571;DHT22;1295;51.130;6.732;2023-04-29T12:27:46;13.70;99.90
2571;DHT22;1295;51.130;6.732;2023-04-29T12:30:12;13.70;99.90
2571;DHT22;1295;51.130;6.732;2023-04-29T12:32:38;13.70;99.90
2571;DHT22;1295;51.130;6.732;2023-04-29T12:35:05;13.70;99.90
2571;DHT22;1295;51.130;6.732;2023-04-29T12:37:31;13.70;99.90
2571;DHT22;1295;51.130;6.732;2023-04-29T12:39:56;13.70;99.90
2571;DHT22;1295;51.130;6.732;2023-04-29T12:42:22;13.70;99.90
2571;DHT22;1295;51.130;6.732;2023-04-29T12:44:47;13.80;99.90
2571;DHT22;1295;51.130;6.732;2023-04-29T12:47:13;13.80;99.90
2571;DHT22;1295;51.130;6.732;2023-04-29T12:49:40;13.80;99.90
2571;DHT22;1295;51.130;6.732;2023-04-29T12:52:06;13.90;99.90
2571;DHT22;1295;51.130;6.732;2023-04-29T12:54:32;13.90;99.90
2571;DHT22;1295;51.130;6.732;2023-04-29T12:56:57;13.80;99.90
2571;DHT22;1295;51.130;6.732;2023-04-29T12:59:23;13.90;99.90
2571;DHT22;1295;51.130;6.732;2023-04-29T13:01:49;13.90;99.90
2571;DHT22;1295;51.130;6.732;2023-04-29T13:04:15;13.90;99.90
2571;DHT22;1295;51.130;6.732;2023-04-29T13:06:40;13.90;99.90
2571;DHT22;1295;51.130;6.732;2023-04-29T13:09:06;13.90;99.90
2571;DHT22;1295;51.130;6.732;2023-04-29T13:11:32;13.90;99.90
2571;DHT22;1295;51.130;6.732;2023-04-29T13:13:57;13.90;99.90
2571;DHT22;1295;51.130;6.732;2023-04-29T13:16:23;13.90;99.90
2571;DHT22;1295;51.130;6.732;2023-04-29T13:18:49;13.90;99.90
2571;DHT22;1295;51.130;6.732;2023-04-29T13:21:15;14.10;99.90
2571;DHT22;1295;51.130;6.732;2023-04-29T13:23:40;14.10;99.90
2571;DHT22;1295;51.130;6.732;2023-04-29T13:26:06;14.20;99.90
2571;DHT22;1295;51.130;6.732;2023-04-29T13:28:32;14.00;99.90
2571;DHT22;1295;51.130;6.732;2023-04-29T13:30:57;14.00;99.90
2571;DHT22;1295;51.130;6.732;2023-04-29T13:33:23;14.00;99.90
2571;DHT22;1295;51.130;6.732;2023-04-29T13:35:49;14.10;99.90
2571;DHT22;1295;51.130;6.732;2023-04-29T13:38:15;14.10;99.90
2571;DHT22;1295;51.130;6.732;2023-04-29T13:40:40;14.00;99.90
2571;DHT22;1295;51.130;6.732;2023-04-29T13:43:07;13.90;99.90
2571;DHT22;1295;51.130;6.732;2023-04-29T13:45:33;13.90;99.90
2571;DHT22;1295;51.130;6.732;2023-04-29T13:47:59;13.90;99.90
2571;DHT22;1295;51.130;6.732;2023-04-29T13:50:24;13.90;99.90
2571;DHT22;1295;51.130;6.732;2023-04-29T13:52:50;13.90;99.90
2571;DHT22;1295;51.130;6.732;2023-04-29T13:55:16;13.80;99.90
2571;DHT22;1295;51.130;6.732;2023-04-29T13:57:42;13.80;99.90
2571;DHT22;1295;51.130;6.732;2023-04-29T14:00:08;13.80;99.90
2571;DHT22;1295;51.130;6.732;2023-04-29T14:02:34;13.90;99.90
2571;DHT22;1295;51.130;6.732;2023-04-29T14:05:00;13.90;99.90
2571;DHT22;1295;51.130;6.732;2023-04-29T14:07:26;13.80;99.90
2571;DHT22;1295;51.130;6.732;2023-04-29T14:09:52;13.80;99.90
2571;DHT22;1295;51.130;6.732;2023-04-29T14:12:17;13.90;99.90
2571;DHT22;1295;51.130;6.732;2023-04-29T14:14:43;14.00;99.90
2571;DHT22;1295;51.130;6.732;2023-04-29T14:17:09;13.80;99.90
2571;DHT22;1295;51.130;6.732;2023-04-29T14:19:34;13.80;99.90
2571;DHT22;1295;51.130;6.732;2023-04-29T14:22:00;13.80;99.90
2571;DHT22;1295;51.130;6.732;2023-04-29T14:24:26;13.80;99.90
2571;DHT22;1295;51.130;6.732;2023-04-29T14:26:53;13.80;99.90
2571;DHT22;1295;51.130;6.732;2023-04-29T14:29:18;13.80;99.90
2571;DHT22;1295;51.130;6.732;2023-04-29T14:31:44;13.80;99.90
2571;DHT22;1295;51.130;6.732;2023-04-29T14:34:10;13.80;99.90
2571;DHT22;1295;51.130;6.732;2023-04-29T14:36:36;13.90;99.90
2571;DHT22;1295;51.130;6.732;2023-04-29T14:39:02;13.80;99.90
2571;DHT22;1295;51.130;6.732;2023-04-29T14:41:28;13.80;99.90
2571;DHT22;1295;51.130;6.732;2023-04-29T14:43:53;13.80;99.90
2571;DHT22;1295;51.130;6.732;2023-04-29T14:46:19;13.90;99.90
2571;DHT22;1295;51.130;6.732;2023-04-29T14:48:45;13.90;99.90
2571;DHT22;1295;51.130;6.732;2023-04-29T14:51:11;13.90;99.90
2571;DHT22;1295;51.130;6.732;2023-04-29T14:53:36;13.80;99.90
2571;DHT22;1295;51.130;6.732;2023-04-29T14:56:02;13.80;99.90
2571;DHT22;1295;51.130;6.732;2023-04-29T14:58:28;13.80;99.90
2571;DHT22;1295;51.130;6.732;2023-04-29T15:00:54;13.80;99.90
2571;DHT22;1295;51.130;6.732;2023-04-29T15:03:20;13.90;99.90
2571;DHT22;1295;51.130;6.732;2023-04-29T15:05:46;13.90;99.90
2571;DHT22;1295;51.130;6.732;2023-04-29T15:08:12;14.00;99.90
2571;DHT22;1295;51.130;6.732;2023-04-29T15:10:38;14.00;99.90
2571;DHT22;1295;51.130;6.732;2023-04-29T15:13:04;14.00;99.90
2571;DHT22;1295;51.130;6.732;2023-04-29T15:15:30;14.00;99.90
2571;DHT22;1295;51.130;6.732;2023-04-29T15:17:55;14.00;99.90
2571;DHT22;1295;51.130;6.732;2023-04-29T15:20:21;14.00;99.90
2571;DHT22;1295;51.130;6.732;2023-04-29T15:22:47;14.00;99.90
2571;DHT22;1295;51.130;6.732;2023-04-29T15:25:12;14.00;99.90
2571;DHT22;1295;51.130;6.732;2023-04-29T15:27:38;14.00;99.90
2571;DHT22;1295;51.130;6.732;2023-04-29T15:30:04;14.00;99.90
2571;DHT22;1295;51.130;6.732;2023-04-29T15:32:30;14.00;99.90
2571;DHT22;1295;51.130;6.732;2023-04-29T15:35:01;14.00;99.90
2571;DHT22;1295;51.130;6.732;2023-04-29T15:37:26;14.00;99.90
2571;DHT22;1295;51.130;6.732;2023-04-29T15:39:52;14.00;99.90
2571;DHT22;1295;51.130;6.732;2023-04-29T15:42:17;14.00;99.90
2571;DHT22;1295;51.130;6.732;2023-04-29T15:44:43;14.00;99.90
2571;DHT22;1295;51.130;6.732;2023-04-29T15:47:09;14.00;99.90
2571;DHT22;1295;51.130;6.732;2023-04-29T15:49:34;14.10;99.90
2571;DHT22;1295;51.130;6.732;2023-04-29T15:52:00;14.00;99.90
2571;DHT22;1295;51.130;6.732;2023-04-29T15:54:25;14.00;99.90
2571;DHT22;1295;51.130;6.732;2023-04-29T15:56:51;14.00;99.90
2571;DHT22;1295;51.130;6.732;2023-04-29T15:59:18;14.00;99.90
2571;DHT22;1295;51.130;6.732;2023-04-29T16:01:43;14.00;99.90